Date,TemperatureHighF,TemperatureAvgF,TemperatureLowF,DewpointHighF,DewpointAvgF,DewpointLowF,HumidityHigh,HumidityAvg,HumidityLow,PressureMaxIn,PressureMinIn,WindSpeedMaxMPH,WindSpeedAvgMPH,GustSpeedMaxMPH,PrecipitationSumIn
2013-1-1,30.6,24.6,10.5,24.7,15.6,4.4,81,69,54,29.98,29.76,3,2,18,0.00
2013-1-2,23.2,17.5,11.4,15.4,10.0,5.7,81,72,60,30.15,29.96,3,1,12,0.00
2013-1-3,25.6,17.2,4.5,18.9,9.6,0.2,84,72,56,30.17,29.97,2,1,10,0.00
2013-1-4,33.4,28.3,25.7,20.2,17.6,14.4,76,64,50,29.99,29.84,3,2,16,0.00
2013-1-5,32.5,27.9,18.1,21.6,19.3,14.4,86,70,61,30.24,29.91,3,1,14,0.00
2013-1-6,38.0,29.4,19.7,26.6,22.6,15.1,91,76,57,30.18,29.90,2,1,13,0.00
2013-1-7,33.7,27.8,16.2,27.9,19.7,12.5,85,72,51,30.36,29.96,3,1,13,0.00
2013-1-8,42.5,25.4,15.4,25.4,18.3,12.2,89,76,40,30.39,30.27,2,0,7,0.00
2013-1-9,45.7,31.2,16.1,32.6,22.4,13.2,88,72,49,30.38,30.05,4,1,16,0.00
2013-1-10,39.5,33.4,22.9,25.0,21.9,19.1,85,64,49,30.57,30.13,4,2,19,0.00
2013-1-11,37.6,29.9,20.5,34.9,25.2,17.8,95,84,54,30.53,30.09,2,0,6,0.00
2013-1-12,46.4,36.6,33.2,41.3,34.5,32.2,97,92,78,30.14,30.06,2,0,4,0.00
2013-1-13,52.9,38.4,34.1,49.1,36.5,33.1,97,93,81,30.11,29.93,2,0,10,0.00
2013-1-14,47.9,39.0,30.1,47.4,32.9,20.1,98,80,54,30.27,29.85,2,1,13,0.00
2013-1-15,32.5,29.5,26.1,21.8,19.7,18.4,77,67,56,30.34,30.20,2,0,6,0.00
2013-1-16,32.2,28.5,25.4,30.1,25.5,19.3,93,88,68,30.21,29.80,2,0,4,0.00
2013-1-17,33.2,27.6,20.3,25.3,20.5,10.7,92,75,62,30.11,29.84,2,1,12,0.00
2013-1-18,21.9,15.3,9.0,10.7,4.4,-3.0,78,62,47,30.42,30.02,3,1,11,0.00
2013-1-19,44.8,37.6,22.4,24.0,15.6,5.2,54,41,32,30.30,29.75,4,2,26,0.00
2013-1-20,46.4,35.4,19.2,29.3,17.2,5.1,76,48,24,29.97,29.55,5,3,21,0.00
2013-1-21,21.4,18.4,14.3,15.3,8.3,2.3,85,65,48,30.03,29.78,3,1,12,0.00
2013-1-22,17.7,9.7,2.4,8.9,-5.2,-11.5,78,51,31,30.13,29.77,4,2,16,0.00
2013-1-23,10.0,3.7,-3.9,-4.1,-7.8,-11.1,73,59,37,30.19,30.10,3,1,14,0.00
2013-1-24,12.6,3.6,-5.6,-1.4,-7.0,-12.0,74,62,42,30.40,30.15,4,1,21,0.00
2013-1-25,19.9,11.3,4.3,7.6,-0.9,-7.6,81,59,32,30.39,30.04,2,0,11,0.00
2013-1-26,18.3,12.3,6.7,7.4,2.2,-0.7,81,65,45,30.35,30.02,3,1,13,0.00
2013-1-27,26.4,16.6,9.3,10.4,4.8,-3.9,84,62,26,30.51,30.33,2,1,11,0.00
2013-1-28,35.8,22.3,11.2,34.5,16.6,3.0,96,79,60,30.48,29.92,2,0,7,0.00
2013-1-29,44.9,37.5,33.4,38.7,34.9,32.1,97,91,66,30.09,29.92,2,0,6,0.00
2013-1-30,59.8,47.0,35.8,53.7,44.7,34.9,98,92,74,30.00,29.30,5,2,29,0.00
2013-1-31,51.1,34.7,22.5,50.6,24.8,5.2,98,69,44,29.63,28.88,5,2,23,0.00
2013-2-1,23.5,18.9,15.1,12.7,6.8,2.7,79,59,44,30.14,29.62,4,2,18,0.00
2013-2-2,23.9,17.0,12.9,10.2,5.2,-0.6,76,60,35,30.21,30.01,3,1,10,0.00
2013-2-3,23.9,17.9,11.7,13.4,10.2,5.1,83,72,44,30.02,29.75,2,0,6,0.00
2013-2-4,20.2,17.0,14.0,14.3,6.8,1.6,85,65,45,29.93,29.75,4,1,16,0.00
2013-2-5,27.5,21.0,16.1,17.3,13.2,8.6,81,72,57,29.96,29.85,1,0,4,0.00
2013-2-6,30.1,23.3,14.0,19.9,12.0,-2.8,88,63,37,30.34,29.85,3,1,14,0.00
2013-2-7,30.4,19.5,8.6,9.8,5.4,2.3,79,56,34,30.49,30.31,3,1,7,0.00
2013-2-8,28.5,25.2,22.4,24.5,19.4,5.0,88,79,50,30.33,29.75,3,1,12,0.00
2013-2-9,22.7,17.8,10.2,19.1,8.8,1.7,87,69,43,30.36,29.77,4,2,17,0.00
2013-2-10,39.3,17.6,1.1,17.1,4.6,-5.9,79,61,18,30.49,30.25,2,0,5,0.00
2013-2-11,42.6,35.7,21.4,37.8,28.0,4.9,91,75,31,30.26,29.61,4,1,14,0.00
2013-2-12,35.5,32.5,29.0,28.9,23.2,18.0,81,68,61,29.91,29.65,4,2,22,0.00
2013-2-13,29.3,28.8,28.4,19.8,18.8,17.7,69,66,62,29.89,29.86,2,1,10,0.00
2013-2-14,40.2,30.2,23.0,27.3,21.6,17.7,86,71,47,29.94,29.67,3,0,7,0.00
2013-2-15,44.9,37.3,30.1,28.2,25.5,20.9,88,63,44,29.94,29.85,4,1,12,0.00
2013-2-16,30.3,24.8,20.6,27.0,15.3,6.5,89,68,53,29.96,29.80,3,0,9,0.00
2013-2-17,21.1,15.6,9.5,10.0,0.6,-2.6,66,52,37,29.94,29.69,5,2,23,0.00
2013-2-18,27.0,16.4,7.7,9.9,2.7,-1.3,70,56,33,30.21,29.93,4,2,14,0.00
2013-2-19,40.9,28.5,16.9,31.8,21.2,9.0,95,76,44,30.15,29.59,4,1,14,0.00
2013-2-20,32.4,21.5,17.8,26.4,10.4,3.5,85,62,45,29.92,29.60,5,2,17,0.00
2013-2-21,20.0,17.2,15.1,10.0,8.3,5.1,77,68,56,30.39,29.88,4,2,17,0.00
2013-2-22,34.0,24.4,13.5,21.1,15.7,9.4,86,70,53,30.42,30.21,3,1,9,0.00
2013-2-23,34.3,32.2,29.7,32.2,28.8,19.8,94,87,71,30.23,29.83,2,1,9,0.00
2013-2-24,37.8,31.4,27.3,33.0,27.0,19.7,96,84,68,29.94,29.75,2,1,13,0.00
2013-2-25,35.9,30.7,24.1,26.3,23.6,20.2,88,75,61,30.24,29.94,2,0,9,0.00
2013-2-26,38.3,28.6,17.3,25.2,21.0,14.4,89,74,55,30.29,29.94,5,1,16,0.00
2013-2-27,30.0,28.4,27.5,28.2,26.0,24.0,93,90,87,29.97,29.83,4,2,14,0.00
2013-2-28,39.9,34.6,31.9,34.9,30.3,26.1,97,85,59,29.59,29.51,1,0,6,0.00
2013-3-1,36.9,31.8,27.3,27.3,25.2,21.0,87,77,62,29.77,29.58,2,1,11,0.00
2013-3-2,29.4,25.7,21.1,20.9,18.7,14.8,79,75,66,29.77,29.71,2,1,11,0.00
2013-3-3,26.9,21.9,18.0,17.0,13.5,10.3,78,70,61,29.78,29.69,3,2,13,0.00
2013-3-4,28.7,23.5,20.0,18.6,15.9,12.1,83,72,61,29.91,29.76,3,2,17,0.00
2013-3-5,38.2,28.7,24.2,24.7,21.3,18.5,83,74,55,30.04,29.91,2,1,11,0.00
2013-3-6,36.8,33.5,28.4,27.5,24.3,21.0,83,69,61,30.05,29.92,3,2,13,0.00
2013-3-7,32.2,30.0,27.6,27.8,23.3,19.2,91,77,61,30.12,30.02,3,1,12,0.00
2013-3-8,39.1,29.5,25.0,31.5,25.2,20.2,92,84,68,30.28,30.05,3,0,12,0.00
2013-3-9,51.9,30.9,14.3,28.0,18.8,9.6,88,67,19,30.35,30.24,3,1,10,0.00
2013-3-10,54.2,36.1,18.9,29.7,20.6,15.1,87,59,24,30.36,30.19,2,0,7,0.00
2013-3-11,50.2,40.7,30.0,40.8,29.6,23.9,88,68,36,30.21,29.96,4,1,13,0.00
2013-3-12,48.8,46.0,36.0,46.9,43.4,34.4,96,91,81,29.95,29.62,5,2,15,0.00
2013-3-13,41.6,33.7,27.0,32.3,24.6,18.3,93,71,41,29.83,29.75,3,1,13,0.00
2013-3-14,27.3,23.0,16.9,20.2,9.0,4.6,78,55,39,29.91,29.80,4,3,21,0.00
2013-3-15,34.4,27.4,19.2,26.3,16.3,7.6,80,63,48,29.93,29.67,3,2,16,0.00
2013-3-16,31.6,27.0,20.3,24.4,15.4,6.2,81,62,35,29.88,29.72,2,1,12,0.00
2013-3-17,30.6,23.1,15.6,16.7,9.4,4.3,77,57,35,30.31,29.89,4,1,17,0.00
2013-3-18,31.2,20.4,10.0,20.8,8.5,0.7,86,64,27,30.42,30.00,3,1,10,0.00
2013-3-19,38.0,29.9,24.8,32.8,26.0,18.5,91,85,72,29.98,29.64,4,1,15,0.00
2013-3-20,32.2,26.5,22.2,20.7,16.6,13.3,79,67,46,29.80,29.74,3,1,12,0.00
2013-3-21,30.9,21.9,9.9,16.8,9.6,4.9,85,62,33,29.80,29.64,3,1,10,0.00
2013-3-22,32.5,25.6,18.8,21.6,17.2,9.7,83,70,54,29.81,29.67,3,1,14,0.00
2013-3-23,35.5,30.1,26.1,22.4,18.1,13.8,84,62,44,29.89,29.77,4,2,18,0.00
2013-3-24,39.6,31.1,24.8,22.7,19.0,16.4,77,61,42,29.90,29.71,3,1,11,0.00
2013-3-25,39.6,32.6,26.9,26.1,22.4,18.8,82,67,45,29.72,29.48,3,1,11,0.00
2013-3-26,32.9,32.0,31.5,26.1,25.7,24.8,79,77,73,29.60,29.58,1,0,6,0.00
2013-3-30,50.2,37.9,28.2,28.1,23.4,16.3,88,60,27,30.13,30.04,3,1,12,0.00
2013-3-31,51.4,36.4,23.0,36.3,26.2,18.9,93,70,34,30.11,29.66,4,1,20,0.00
2013-4-1,49.4,36.6,26.1,41.0,28.7,9.7,96,75,39,29.84,29.55,4,1,16,0.00
2013-4-2,33.1,27.1,22.1,17.0,10.3,5.3,70,50,32,30.02,29.84,4,3,17,0.00
2013-4-3,35.5,28.6,23.8,14.2,11.7,8.3,66,50,35,30.28,29.98,4,2,17,0.00
2013-4-4,52.0,35.8,21.1,24.7,15.4,9.6,78,47,20,30.35,29.98,3,1,13,0.00
2013-4-5,51.4,38.4,26.4,24.3,18.1,14.2,72,46,26,29.97,29.74,3,2,17,0.00
2013-4-6,44.6,32.8,24.2,19.5,8.3,-0.9,67,40,16,30.28,29.95,5,2,18,0.00
2013-4-7,57.0,44.0,26.7,36.3,23.1,10.6,66,46,27,30.24,29.87,5,2,14,0.00
2013-4-8,67.3,49.6,35.3,37.6,33.4,27.4,87,58,23,30.05,29.91,3,1,12,0.00
2013-4-9,63.7,56.4,48.6,49.7,41.8,36.3,93,59,37,29.98,29.80,4,2,20,0.04
2013-4-10,57.6,52.3,46.5,53.0,48.1,39.4,97,86,60,29.93,29.76,2,0,7,0.66
2013-4-11,53.8,43.8,36.0,52.1,37.6,20.6,96,80,45,30.04,29.78,3,0,9,0.02
2013-4-12,38.6,36.1,34.1,35.0,32.4,30.2,94,86,74,30.01,29.72,5,2,19,0.50
2013-4-13,50.5,41.9,35.8,37.2,33.4,29.3,96,74,49,29.90,29.75,2,0,7,0.01
2013-4-14,43.6,37.7,29.1,33.4,26.3,22.2,85,64,43,30.22,29.87,3,1,14,0.01
2013-4-15,60.7,43.1,28.2,36.4,28.6,23.6,86,60,33,30.32,30.19,3,1,11,0.00
2013-4-16,59.6,52.9,45.5,52.8,43.5,28.1,88,71,49,30.27,30.02,4,2,19,0.21
2013-4-17,59.6,48.6,37.3,53.0,35.3,26.1,92,64,28,30.30,30.05,3,1,13,0.10
2013-4-18,57.5,46.0,31.3,51.6,35.7,28.5,91,70,42,30.30,29.99,5,2,15,0.00
2013-4-19,68.4,60.4,52.9,60.4,54.9,50.5,93,82,68,30.01,29.48,6,2,23,0.98
2013-4-20,54.2,42.5,31.6,47.7,28.8,16.8,93,61,34,30.27,29.60,4,2,19,0.21
2013-4-21,48.0,36.2,27.8,25.0,17.5,11.8,69,49,24,30.62,30.27,4,1,13,0.00
2013-4-22,52.8,39.7,26.7,29.4,21.2,16.4,78,52,26,30.65,30.45,4,1,13,0.00
2013-4-23,46.7,39.6,30.9,37.5,31.5,23.5,88,73,63,30.46,30.13,2,1,10,0.00
2013-4-24,71.5,52.3,29.8,50.9,39.2,28.0,95,66,34,30.14,29.68,3,1,13,0.00
2013-4-25,61.8,45.3,35.3,50.3,27.6,18.3,84,54,23,30.25,29.67,4,2,15,0.11
2013-4-26,56.6,43.1,30.6,32.5,27.0,22.4,83,57,27,30.42,30.24,3,1,11,0.00
2013-4-27,64.7,46.9,27.8,37.7,27.4,17.6,85,53,21,30.44,30.25,3,1,12,0.00
2013-4-28,68.9,53.5,33.4,37.3,31.9,28.9,86,49,24,30.27,30.09,3,0,9,0.00
2013-4-29,54.8,50.2,47.0,46.1,41.4,31.4,92,73,41,30.18,30.11,3,1,12,0.06
2013-4-30,67.1,54.1,44.2,46.8,41.9,37.3,87,66,38,30.27,30.15,2,0,7,0.00
2013-5-1,71.6,54.3,35.5,37.5,31.6,19.9,87,50,15,30.41,30.27,2,0,9,0.00
2013-5-2,76.7,57.5,36.9,41.8,35.0,30.3,87,50,20,30.43,30.24,2,0,11,0.00
2013-5-3,68.1,57.0,43.6,42.1,31.6,22.0,66,41,18,30.40,30.26,2,1,12,0.00
2013-5-4,71.6,54.7,35.9,41.3,36.1,32.0,89,55,25,30.32,30.15,2,0,9,0.00
2013-5-5,71.8,54.6,37.0,41.9,32.2,12.3,93,52,11,30.24,30.12,2,0,11,0.00
2013-5-6,73.5,54.5,34.1,42.7,36.3,31.5,92,57,24,30.21,30.05,2,0,7,0.00
2013-5-7,75.1,59.5,42.1,50.3,43.9,35.8,95,62,24,30.12,30.01,2,0,9,0.00
2013-5-8,59.8,56.9,52.5,58.1,54.3,48.1,96,91,82,30.06,29.90,1,0,6,0.79
2013-5-9,61.5,54.2,47.4,55.7,51.6,46.3,97,91,66,29.96,29.84,0,0,4,0.06
2013-5-10,76.1,58.4,42.8,56.1,48.3,40.6,98,74,28,29.98,29.79,2,0,6,0.03
2013-5-11,62.6,59.0,55.0,60.2,57.1,53.4,97,93,87,29.82,29.63,1,0,6,0.72
2013-5-12,56.6,50.3,37.0,53.3,38.6,21.2,95,68,29,29.85,29.61,3,1,13,0.01
2013-5-13,43.5,39.4,31.6,32.1,26.2,22.4,86,60,47,30.08,29.83,2,1,13,0.00
2013-5-14,52.5,40.5,28.2,30.8,24.7,16.1,93,59,27,30.11,29.99,2,1,13,0.01
2013-5-15,66.1,47.1,29.3,52.7,39.4,25.7,92,76,53,30.05,29.60,3,0,11,0.07
2013-5-16,50.4,49.0,47.6,48.0,46.0,44.2,93,89,87,29.70,29.68,0,0,1,0.00
2013-5-17,66.1,54.3,43.2,42.1,37.1,32.5,79,54,30,30.19,29.80,2,1,16,0.00
2013-5-18,66.6,52.4,37.3,44.8,40.4,35.2,94,67,36,30.27,30.19,1,0,7,0.00
2013-5-19,58.1,53.2,46.8,52.5,49.3,42.8,91,87,81,30.25,30.13,1,0,5,0.00
2013-5-20,80.3,64.7,52.8,61.7,56.3,51.1,95,77,42,30.11,29.88,2,0,9,0.00
2013-5-21,86.7,70.1,54.5,64.7,59.8,53.4,96,74,37,29.93,29.72,2,0,10,0.00
2013-5-22,80.3,69.6,61.6,67.5,64.0,58.9,96,83,61,29.82,29.72,4,0,13,0.25
2013-5-23,73.3,65.4,58.3,63.8,59.5,55.1,96,82,66,29.80,29.69,4,0,13,0.51
2013-5-24,60.1,47.2,38.0,58.5,45.5,36.2,97,94,91,30.00,29.61,1,0,6,0.45
2013-5-25,41.8,40.0,38.2,39.3,38.0,36.5,95,92,90,30.00,29.92,2,1,10,0.67
2013-5-26,54.4,44.6,36.9,39.6,36.5,31.3,92,75,44,30.17,29.89,3,1,15,0.01
2013-5-27,67.1,49.6,31.9,44.3,34.6,28.6,96,64,24,30.23,30.10,2,0,13,0.00
2013-5-28,62.9,49.7,37.8,51.7,43.7,35.7,96,82,41,30.20,30.06,1,0,4,0.11
2013-5-29,79.4,64.0,52.8,67.5,59.0,51.7,98,86,56,30.08,29.91,2,0,12,1.17
2013-5-30,84.1,69.1,56.9,69.2,61.3,56.1,98,80,44,30.07,30.00,1,0,9,0.00
2013-5-31,87.8,71.4,56.5,69.2,59.9,54.0,97,72,33,30.10,29.92,1,0,11,0.00
2013-6-1,86.7,72.4,57.6,65.6,60.6,56.5,96,71,37,29.94,29.80,1,0,10,0.00
2013-6-2,82.2,73.8,63.7,66.3,64.0,59.9,95,73,54,29.81,29.65,2,0,12,0.07
2013-6-3,67.9,61.4,48.8,62.2,54.3,44.8,97,79,54,29.90,29.75,2,0,13,0.00
2013-6-4,66.9,54.7,44.5,44.2,37.7,28.3,87,57,25,30.12,29.89,3,1,14,0.00
2013-6-5,72.3,55.6,37.9,49.2,40.6,34.5,93,63,26,30.19,30.05,1,0,7,0.00
2013-6-6,66.0,55.4,48.0,53.4,49.0,45.4,96,81,53,30.10,29.95,1,0,9,0.20
2013-6-7,56.6,55.1,53.1,55.4,53.7,51.7,96,95,94,29.96,29.69,1,0,6,0.46
2013-6-8,67.8,59.3,53.2,57.9,54.8,52.2,97,86,65,30.02,29.66,1,0,9,0.15
2013-6-9,73.3,60.2,47.1,58.8,52.0,46.0,97,77,47,30.16,30.01,2,0,10,0.00
2013-6-10,60.9,56.1,49.8,59.8,54.8,48.4,96,96,92,30.16,29.81,1,0,6,0.98
2013-6-11,69.6,61.2,57.3,64.2,58.3,52.8,98,91,72,29.82,29.55,2,0,10,0.45
2013-6-12,59.3,57.1,55.1,53.5,52.3,50.0,90,84,78,29.64,29.61,1,1,12,0.02
2013-6-13,55.0,51.6,47.0,54.2,50.5,45.7,97,96,93,29.82,29.55,2,0,11,1.23
2013-6-14,69.4,55.0,48.0,57.8,51.9,47.2,98,91,55,29.87,29.59,2,0,10,0.60
2013-6-15,52.5,50.2,48.8,51.1,49.4,48.0,97,97,97,29.91,29.87,0,0,2,0.00
2013-6-16,71.5,58.4,45.7,60.2,52.4,43.8,96,82,52,29.96,29.70,1,0,9,0.00
2013-6-17,79.4,64.3,55.1,62.7,57.6,50.1,97,82,36,29.88,29.76,3,0,22,0.07
2013-6-18,72.5,61.3,51.9,61.6,55.9,50.4,97,83,65,29.89,29.81,1,0,7,0.00
2013-6-19,69.4,56.9,44.6,49.8,44.2,37.4,96,67,32,30.16,29.88,2,0,7,0.00
2013-6-20,75.8,59.0,41.2,55.1,46.9,39.6,96,69,36,30.24,30.15,1,0,11,0.00
2013-6-21,80.5,65.2,51.1,63.0,56.0,49.7,96,75,40,30.23,30.15,1,0,9,0.00
2013-6-22,81.2,67.8,53.9,62.7,58.2,52.8,96,75,44,30.18,30.04,1,0,6,0.00
2013-6-23,86.7,73.2,62.1,68.5,62.8,59.1,95,73,40,30.09,29.96,1,0,6,0.00
2013-6-24,85.5,71.6,62.4,68.3,63.4,58.5,96,77,50,30.01,29.90,2,0,10,0.00
2013-6-25,85.1,70.0,57.6,69.9,63.0,55.9,95,80,45,29.96,29.74,1,0,7,0.06
2013-6-26,76.8,69.3,62.3,66.7,64.0,60.6,96,84,63,29.79,29.72,1,0,7,0.00
2013-6-27,78.8,68.8,58.3,67.4,63.1,57.2,96,83,60,29.80,29.47,0,0,3,0.12
2013-6-28,76.8,69.4,63.1,66.1,63.2,60.7,96,82,61,29.50,29.30,2,0,12,0.24
2013-6-29,77.2,67.2,58.1,63.7,59.8,56.3,96,79,51,29.64,29.43,1,0,7,0.00
2013-6-30,81.2,67.8,58.6,68.7,62.3,57.2,96,84,51,29.86,29.63,0,0,5,0.00
2013-7-1,73.0,67.5,62.7,70.1,65.4,61.5,97,93,82,29.97,29.85,0,0,0,0.43
2013-7-2,78.1,71.2,66.3,71.3,68.3,65.4,98,91,75,30.08,29.96,1,0,5,0.15
2013-7-3,80.7,72.3,66.9,70.0,67.2,65.3,95,85,65,30.16,30.07,1,0,6,0.01
2013-7-4,86.1,74.4,65.5,70.6,67.0,64.6,97,80,53,30.17,30.07,1,0,11,0.00
2013-7-5,86.7,77.3,69.8,70.5,67.6,62.9,92,74,48,30.12,30.00,1,0,9,0.00
2013-7-6,84.5,75.5,68.4,69.2,67.3,65.6,94,77,56,30.06,29.97,2,0,10,0.00
2013-7-7,88.6,75.6,65.3,72.3,67.8,64.1,96,79,52,30.01,29.85,2,0,6,0.00
2013-7-8,81.8,72.9,66.3,68.5,66.3,64.2,94,81,58,30.00,29.88,1,0,6,0.01
2013-7-9,81.8,71.4,64.7,69.6,65.6,60.9,96,83,51,30.04,29.93,1,0,4,0.00
2013-7-10,79.6,72.3,67.4,72.0,68.0,65.8,96,87,69,29.94,29.72,1,0,4,0.09
2013-7-11,70.3,69.4,68.4,67.7,67.0,66.0,94,92,90,29.75,29.71,0,0,3,0.00
2013-7-12,77.0,67.1,56.2,64.1,59.6,54.8,96,78,57,30.08,29.92,1,0,5,0.00
2013-7-13,74.4,67.9,62.4,68.7,64.1,58.6,96,88,73,30.26,30.07,0,0,4,0.16
2013-7-14,82.0,73.0,65.0,72.6,68.0,63.5,96,85,66,30.29,30.19,1,0,6,0.00
2013-7-15,86.7,75.0,65.5,71.3,66.9,64.3,97,78,48,30.21,30.12,2,0,9,0.00
2013-7-16,87.0,73.5,61.5,69.0,64.2,60.2,96,76,42,30.20,30.12,1,0,7,0.00
2013-7-17,89.9,75.1,62.7,70.6,65.2,61.2,96,75,40,30.19,30.00,1,0,7,0.00
2013-7-18,89.9,77.8,69.4,73.9,69.2,66.2,94,77,48,30.01,29.90,1,0,10,0.00
2013-7-19,89.7,78.0,65.5,71.4,67.5,64.3,96,73,46,29.92,29.70,2,0,10,0.00
2013-7-20,83.2,74.2,64.8,71.9,66.2,60.2,92,77,53,29.80,29.66,2,0,10,0.00
2013-7-21,80.9,69.0,57.3,64.1,60.0,55.6,95,75,45,29.93,29.80,1,0,6,0.00
2013-7-22,80.1,70.3,62.7,67.6,63.5,60.8,96,81,54,29.93,29.76,1,0,6,0.30
2013-7-23,79.0,70.8,63.1,71.5,67.4,61.6,97,90,68,29.76,29.51,1,0,6,0.40
2013-7-24,71.3,63.0,50.4,63.8,56.4,47.6,97,81,54,29.97,29.58,2,0,10,0.02
2013-7-25,71.3,58.0,46.7,57.3,50.5,45.3,96,78,52,30.05,29.97,1,0,7,0.00
2013-7-26,76.7,63.1,50.7,59.3,53.7,48.8,95,75,45,30.04,29.94,1,0,7,0.00
2013-7-27,79.2,65.4,50.4,62.0,56.5,49.3,97,76,46,30.02,29.90,1,0,5,0.00
2013-7-28,68.3,65.1,62.0,66.5,62.9,58.8,97,93,79,29.93,29.86,0,0,3,0.51
2013-7-29,76.3,65.9,55.4,63.6,57.7,49.4,98,78,41,30.08,29.91,1,0,6,0.00
2013-7-30,71.5,59.9,50.4,59.2,54.0,49.0,96,82,57,30.15,30.07,1,0,7,0.00
2013-7-31,74.4,63.0,50.5,62.1,55.5,49.4,97,79,51,30.15,29.98,1,0,5,0.00
2013-8-1,65.8,61.4,56.5,63.5,59.6,55.2,97,94,86,29.99,29.80,1,0,9,0.19
2013-8-2,76.0,64.7,56.5,61.8,58.2,52.1,98,82,45,29.86,29.78,2,0,13,0.18
2013-8-3,76.1,63.8,53.9,61.4,55.1,46.3,97,77,39,29.87,29.78,2,0,11,0.00
2013-8-4,71.1,59.1,50.4,56.0,51.2,47.7,96,77,53,29.95,29.83,2,0,21,0.00
2013-8-5,70.9,58.8,47.6,51.5,47.4,42.6,94,70,38,30.03,29.94,2,0,12,0.00
2013-8-6,75.3,59.2,44.1,58.5,50.8,42.5,96,77,41,30.09,30.03,1,0,5,0.00
2013-8-7,67.6,61.5,54.4,62.9,59.0,52.8,97,92,79,30.09,29.98,0,0,3,0.08
2013-8-8,78.6,68.1,61.0,70.5,66.0,60.4,98,94,70,30.00,29.91,1,0,5,0.14
2013-8-9,75.1,70.1,66.6,72.7,68.9,65.7,98,96,89,29.92,29.73,1,0,9,1.65
2013-8-10,75.4,64.8,54.2,65.5,57.2,51.9,98,79,46,30.03,29.81,2,0,11,0.00
2013-8-11,75.1,60.1,46.0,59.2,52.0,44.6,96,78,44,30.11,29.99,2,0,12,0.00
2013-8-12,77.9,63.6,51.1,60.8,55.4,49.7,96,78,48,30.02,29.87,1,0,7,0.00
2013-8-13,74.0,63.9,58.7,66.0,61.1,56.9,97,91,68,29.88,29.62,1,0,9,0.49
2013-8-14,64.0,56.1,49.2,57.3,49.6,46.1,95,80,62,30.00,29.72,2,0,11,0.00
2013-8-15,68.1,56.3,44.6,53.3,48.3,43.3,97,77,45,30.12,29.99,2,0,12,0.00
2013-8-16,73.2,58.8,48.0,56.3,50.8,46.6,96,78,47,30.18,30.10,1,0,7,0.00
2013-8-17,77.4,60.7,47.0,60.5,52.6,45.7,97,78,34,30.28,30.18,1,0,4,0.00
2013-8-18,70.4,61.2,53.3,63.0,57.5,51.9,96,88,70,30.25,30.10,0,0,1,0.10
2013-8-19,74.0,62.6,53.8,63.4,57.4,52.7,97,85,59,30.10,29.99,1,0,6,0.00
2013-8-20,79.2,63.8,51.6,62.8,56.4,50.5,97,80,44,30.12,30.02,1,0,10,0.00
2013-8-21,82.0,65.8,52.5,64.8,57.8,51.4,97,79,44,30.17,30.00,1,0,6,0.00
2013-8-22,83.2,68.5,56.2,65.6,60.6,55.1,97,79,40,30.03,29.81,1,0,6,0.01
2013-8-23,74.6,64.5,55.4,65.2,56.4,51.0,97,78,45,30.12,29.84,1,0,7,0.00
2013-8-24,76.5,59.8,45.5,57.0,50.0,44.2,96,74,37,30.32,30.10,1,0,7,0.00
2013-8-25,78.3,61.5,47.4,57.8,51.9,46.0,96,74,38,30.39,30.14,1,0,11,0.00
2013-8-26,74.2,65.3,58.7,67.7,62.1,53.8,96,90,71,30.15,29.83,0,0,4,0.01
2013-8-27,79.8,68.3,61.3,67.0,64.3,59.9,98,88,58,29.89,29.79,1,0,7,0.00
2013-8-28,84.5,66.3,57.6,70.2,62.8,56.5,98,90,53,29.89,29.78,1,0,4,0.00
2013-8-29,80.5,67.3,58.6,68.6,62.8,57.8,98,87,61,29.98,29.86,1,0,5,0.00
2013-8-30,83.2,69.3,62.0,66.8,62.7,59.0,96,82,46,29.96,29.78,1,0,7,0.02
2013-8-31,83.8,70.7,63.9,70.4,65.9,61.8,96,86,57,29.79,29.68,2,0,11,0.01
2013-9-1,78.6,68.2,61.0,72.5,66.2,60.1,97,94,69,29.81,29.74,1,0,4,0.33
2013-9-2,74.6,68.4,63.1,71.3,66.6,61.9,98,94,83,29.76,29.62,1,0,5,0.76
2013-9-3,72.3,63.2,58.9,61.7,58.0,52.7,98,85,54,29.84,29.69,2,0,10,0.00
2013-9-4,74.7,63.6,55.1,57.7,53.7,49.4,94,73,42,29.94,29.83,2,0,11,0.00
2013-9-5,66.4,57.7,44.8,58.1,47.9,37.3,97,74,38,30.15,29.86,3,0,13,0.03
2013-9-6,65.5,49.8,36.9,48.2,40.1,34.8,96,74,32,30.26,30.11,1,0,6,0.01
2013-9-7,75.4,56.8,42.6,56.9,48.2,39.3,95,77,30,30.12,29.83,1,0,6,0.00
2013-9-8,66.9,57.9,43.6,60.0,51.7,40.9,97,82,45,30.09,29.76,2,0,15,0.11
2013-9-9,70.9,53.4,36.0,56.0,44.9,34.7,96,77,36,30.23,30.05,1,0,7,0.00
2013-9-10,79.9,67.9,60.5,72.2,64.7,55.5,97,90,70,30.10,29.95,1,0,10,0.28
2013-9-11,90.5,71.8,63.7,76.5,67.3,63.1,98,88,45,30.08,29.89,1,0,9,0.56
2013-9-12,80.9,67.4,62.3,73.6,65.6,61.4,98,94,65,29.92,29.63,1,0,7,0.53
2013-9-13,64.5,58.4,49.2,61.4,55.4,46.4,98,90,71,29.84,29.58,1,0,9,0.05
2013-9-14,58.4,50.2,43.3,45.8,43.5,40.8,92,79,57,30.11,29.83,2,0,12,0.00
2013-9-15,67.3,50.4,37.2,50.8,43.3,35.9,96,79,41,30.19,30.05,1,0,7,0.00
2013-9-16,60.9,53.0,46.2,54.0,47.9,40.6,97,83,67,30.25,30.00,1,0,9,0.06
2013-9-17,61.0,46.8,35.0,43.7,37.1,31.8,96,73,35,30.44,30.24,2,0,11,0.00
2013-9-18,72.5,50.2,35.0,53.3,42.4,33.7,96,78,37,30.36,30.14,1,0,6,0.00
2013-9-19,78.3,54.9,39.6,58.3,46.9,38.6,97,79,34,30.18,30.01,1,0,4,0.00
2013-9-20,77.6,57.4,42.5,58.3,50.2,41.4,98,80,42,30.09,29.92,1,0,4,0.00
2013-9-21,70.8,60.2,49.4,58.7,52.4,37.8,98,79,32,29.93,29.59,2,1,13,0.38
2013-9-22,58.7,53.0,47.3,56.1,46.5,38.2,97,80,57,29.90,29.58,2,0,14,0.04
2013-9-23,58.1,48.0,39.9,40.4,37.8,34.2,89,69,48,30.04,29.88,2,1,16,0.00
2013-9-24,67.1,49.2,36.3,44.8,38.2,34.0,95,71,30,30.05,29.88,2,0,14,0.00
2013-9-25,69.4,50.1,35.3,52.2,42.5,33.7,96,79,41,29.98,29.86,2,0,11,0.00
2013-9-26,66.6,51.3,40.8,50.3,44.8,39.7,98,81,40,30.11,29.94,1,0,6,0.00
2013-9-27,69.3,51.7,38.5,50.9,45.0,37.5,97,80,49,30.25,30.11,1,0,6,0.00
2013-9-28,71.1,53.7,41.3,49.8,44.0,39.6,96,75,33,30.34,30.23,1,0,10,0.00
2013-9-29,72.1,52.7,39.2,54.6,46.2,38.2,97,81,47,30.24,30.03,1,0,7,0.00
2013-9-30,72.0,52.8,40.2,53.7,45.5,39.2,97,80,39,30.09,29.93,1,0,6,0.00
2013-10-1,73.0,55.1,41.5,56.7,48.7,40.2,97,81,50,30.03,29.88,1,0,7,0.00
2013-10-2,75.4,59.2,45.8,59.2,52.6,44.7,98,81,51,29.99,29.89,2,0,10,0.00
2013-10-3,75.4,57.3,44.3,52.6,45.2,35.1,97,70,24,30.11,29.99,2,0,10,0.00
2013-10-4,77.6,63.2,50.5,63.6,57.6,47.1,96,84,56,30.06,29.92,2,0,10,0.62
2013-10-5,76.5,65.4,60.2,65.1,61.1,59.3,98,87,59,30.03,29.95,1,0,7,0.36
2013-10-6,63.1,60.1,57.8,60.9,58.5,56.1,98,94,88,30.02,29.97,1,0,6,0.14
2013-10-7,69.3,60.6,49.2,64.9,56.5,43.0,97,87,71,29.97,29.58,3,1,13,0.79
2013-10-8,62.7,51.1,39.6,45.3,40.4,37.1,92,70,39,30.35,29.88,2,0,9,0.00
2013-10-9,63.9,46.6,34.3,45.1,37.6,33.0,97,75,35,30.43,30.31,1,0,6,0.00
2013-10-10,57.3,45.8,36.0,45.5,39.7,34.7,97,81,48,30.32,30.14,0,0,3,0.00
2013-10-11,72.7,54.5,43.1,52.4,44.4,37.8,87,71,41,30.16,30.00,1,0,7,0.00
2013-10-12,69.6,52.7,34.9,51.1,43.5,33.3,96,74,46,30.27,30.11,2,0,12,0.00
2013-10-13,67.3,53.9,43.9,48.9,45.9,41.7,95,76,47,30.35,30.25,2,0,9,0.00
2013-10-14,69.8,55.7,43.3,51.1,47.0,41.7,96,75,42,30.33,30.16,2,0,7,0.00
2013-10-15,67.9,58.6,51.3,53.7,51.5,48.2,92,78,56,30.22,30.05,1,0,5,0.00
2013-10-16,62.0,53.8,46.4,52.2,48.2,42.7,91,82,66,30.06,29.84,0,0,4,0.00
2013-10-17,70.9,61.0,54.5,57.9,49.8,39.1,92,70,33,29.85,29.55,2,0,10,0.15
2013-10-18,60.5,52.8,40.6,58.5,42.6,33.2,94,70,37,29.92,29.53,3,1,15,0.05
2013-10-19,60.5,46.9,35.0,46.1,38.0,33.7,96,75,37,29.96,29.66,2,0,10,0.01
2013-10-20,54.4,46.5,37.8,44.8,35.2,30.4,86,66,41,30.01,29.65,3,1,13,0.00
2013-10-21,63.2,47.8,33.7,41.3,35.5,31.6,95,67,33,30.11,29.87,2,0,11,0.00
2013-10-22,55.1,48.6,33.2,45.4,38.9,30.0,88,70,49,29.88,29.68,2,0,12,0.00
2013-10-23,47.1,37.6,29.8,36.2,31.2,27.1,93,80,46,29.80,29.59,1,0,7,0.03
2013-10-24,43.9,37.8,30.3,34.5,27.9,22.8,94,70,44,29.91,29.71,3,1,11,0.01
2013-10-25,44.3,38.0,32.5,34.1,30.1,26.6,90,74,52,30.16,29.90,3,0,13,0.00
2013-10-26,48.5,39.5,27.8,31.1,25.5,21.6,94,61,35,30.16,29.81,4,1,16,0.00
2013-10-27,47.1,41.0,32.1,33.8,29.2,25.4,85,64,43,30.07,29.77,3,1,16,0.00
2013-10-28,50.5,38.1,29.3,33.5,29.9,26.2,91,74,48,30.32,30.06,3,0,12,0.00
2013-10-29,46.8,36.3,28.7,29.5,24.4,17.7,90,65,31,30.41,30.31,2,0,11,0.00
2013-10-30,56.6,41.3,32.4,43.3,34.9,24.7,96,79,50,30.31,30.13,2,0,9,0.02
2013-10-31,58.3,45.7,32.4,56.1,44.4,31.0,98,95,86,30.21,29.65,2,0,18,0.47
2013-11-1,64.0,58.1,43.8,58.5,49.6,39.3,89,74,47,29.66,29.37,5,2,29,0.54
2013-11-2,57.6,45.3,36.9,42.5,39.4,35.6,97,81,53,29.74,29.58,1,0,10,0.00
2013-11-3,45.4,33.5,23.8,40.5,27.4,17.6,89,78,62,30.46,29.73,2,0,13,0.02
2013-11-4,40.9,27.8,18.3,23.6,17.0,9.7,87,67,28,30.64,30.44,2,0,10,0.00
2013-11-5,49.2,36.9,24.8,35.7,28.9,19.7,85,73,53,30.64,30.41,2,0,6,0.00
2013-11-6,55.7,48.0,37.9,47.2,41.1,34.4,90,77,63,30.43,29.94,4,1,18,0.00
2013-11-7,56.9,46.1,32.9,51.1,41.3,28.3,95,83,68,29.95,29.75,4,1,18,0.43
2013-11-8,37.9,34.3,32.2,30.7,26.8,24.8,87,74,61,30.12,29.86,2,1,12,0.00
2013-11-9,42.8,37.4,32.9,27.9,25.7,23.1,80,63,47,30.22,29.89,3,0,14,0.00
2013-11-10,44.9,40.4,35.8,37.3,31.8,26.8,91,72,50,29.98,29.77,3,1,17,0.06
2013-11-11,45.1,39.7,34.1,33.5,26.5,21.4,86,60,39,30.12,29.90,3,1,15,0.01
2013-11-12,38.8,27.4,21.3,33.2,19.6,12.7,90,73,60,30.27,29.89,3,1,16,0.00
2013-11-13,30.3,23.6,18.1,17.7,12.8,9.8,80,64,45,30.36,30.18,3,1,15,0.01
2013-11-14,28.8,27.7,26.0,17.9,16.5,15.8,66,62,58,30.19,30.12,2,1,5,0.00
2013-11-15,57.5,35.8,24.7,29.9,21.4,4.8,81,61,12,30.23,30.08,3,0,9,0.00
2013-11-16,54.8,39.4,31.5,40.0,31.8,23.7,96,76,37,30.30,30.16,2,0,7,0.02
2013-11-17,57.2,48.0,32.2,52.7,45.1,30.1,98,90,81,30.24,29.65,4,1,16,0.02
2013-11-18,57.5,50.7,36.8,55.0,38.0,25.5,92,63,39,29.73,29.44,5,2,19,0.42
2013-11-19,37.2,32.2,27.0,28.3,21.9,17.2,79,66,55,30.34,29.73,4,2,19,0.00
2013-11-20,39.5,25.9,17.3,18.2,12.9,-1.7,80,61,18,30.62,30.33,2,0,5,0.00
2013-11-21,42.3,30.3,14.9,33.3,22.6,11.2,87,74,54,30.64,30.33,2,0,9,0.00
2013-11-22,45.8,42.3,38.0,44.4,40.2,33.0,97,92,79,30.33,29.86,2,0,12,0.10
2013-11-23,43.5,30.4,18.6,35.5,20.0,3.9,83,65,51,30.02,29.84,3,2,17,0.00
2013-11-24,20.5,16.1,13.1,10.2,5.3,-2.3,79,63,39,30.30,29.93,4,2,22,0.00
2013-11-25,32.7,22.4,13.5,16.1,9.2,2.8,78,59,31,30.42,30.20,2,1,11,0.00
2013-11-26,33.5,30.2,26.1,31.8,25.3,3.5,95,83,32,30.25,29.86,2,0,15,0.00
2013-11-27,43.3,34.6,25.3,42.0,32.5,18.5,97,92,73,29.88,29.40,2,0,11,0.00
2013-11-28,25.7,19.4,12.4,19.5,11.5,8.0,85,72,51,30.44,29.62,3,1,14,0.00
2013-11-29,26.6,18.7,9.9,17.4,12.4,5.6,88,77,53,30.74,30.43,1,0,7,0.00
2013-11-30,29.3,17.9,3.7,23.0,9.1,-0.6,83,70,42,30.78,30.35,2,0,11,0.00
2013-12-1,38.5,32.0,25.1,29.5,26.1,21.7,90,79,62,30.36,29.99,3,0,14,0.00
2013-12-2,37.2,32.7,28.1,33.4,30.3,26.6,94,91,84,30.00,29.85,0,0,2,0.00
2013-12-3,30.1,28.3,26.9,28.8,26.9,25.4,95,95,94,29.91,29.89,0,0,0,0.00
2013-12-4,48.5,33.0,25.7,37.0,29.2,24.0,94,87,62,30.14,29.97,1,0,4,0.00
2013-12-5,53.5,44.9,33.1,49.4,43.2,31.6,98,94,83,30.10,29.87,2,1,11,0.00
2013-12-6,49.9,38.0,29.0,49.4,35.1,26.7,98,89,67,30.15,29.78,1,0,9,0.00
2013-12-7,31.0,26.8,19.2,26.8,20.0,12.7,91,76,57,30.49,30.11,2,0,12,0.00
2013-12-8,26.6,22.0,16.4,17.2,14.1,11.3,83,71,59,30.58,30.38,1,0,6,0.00
2013-12-9,36.8,30.1,22.2,35.2,26.5,16.4,96,86,78,30.41,29.90,3,1,12,0.00
2013-12-10,32.7,26.9,19.7,27.2,20.3,10.0,88,76,60,30.00,29.81,2,0,17,0.00
2013-12-11,21.8,19.9,18.6,13.2,11.6,9.4,79,70,60,30.09,29.99,1,0,6,0.00
2013-12-12,19.1,13.5,7.4,12.1,4.1,0.9,77,66,51,30.31,30.08,2,0,10,0.00
2013-12-13,24.8,19.3,13.5,14.0,9.0,1.8,75,64,57,30.34,29.99,3,1,20,0.00
2013-12-14,17.8,14.9,13.3,14.8,8.9,5.9,88,77,65,30.48,30.01,4,1,13,0.00
2013-12-15,29.5,24.5,18.1,28.2,21.2,15.4,95,87,72,29.99,29.54,3,1,17,0.00
2013-12-16,25.1,16.3,3.0,17.0,6.7,-1.5,81,66,52,30.21,29.71,3,1,15,0.00
2013-12-17,19.7,11.2,-2.2,16.7,7.4,-7.4,89,84,78,30.22,29.94,1,0,4,0.00
2013-12-18,28.8,22.9,13.5,20.7,17.5,10.4,90,80,65,30.07,29.93,2,0,14,0.00
2013-12-19,40.6,30.1,19.7,26.0,21.4,15.4,87,71,49,30.09,29.93,2,0,16,0.00
2013-12-20,48.5,39.3,29.7,40.6,33.4,25.3,91,80,64,30.07,29.87,3,1,18,0.00
2013-12-21,57.2,50.5,44.2,52.1,45.6,39.1,98,84,71,29.89,29.76,3,2,20,0.00
2013-12-22,63.7,60.6,56.0,56.3,52.2,48.9,88,74,61,29.84,29.62,5,2,21,0.00
2013-12-23,58.7,45.2,30.1,49.6,41.5,21.3,96,87,69,30.13,29.83,2,0,9,0.00
2013-12-24,30.4,24.6,13.6,21.9,15.8,2.6,83,69,58,30.32,30.08,3,1,16,0.00
2013-12-25,22.5,14.8,7.7,7.1,3.4,-0.3,74,61,42,30.52,30.31,3,0,13,0.00
2013-12-26,27.9,24.2,18.4,22.8,16.0,6.5,83,71,57,30.39,30.09,3,1,14,0.00
2013-12-27,29.7,26.1,18.9,22.2,19.0,13.8,83,74,61,30.28,30.20,2,0,10,0.00
2013-12-28,43.1,30.9,21.0,28.3,23.9,18.0,90,77,50,30.22,30.01,3,1,13,0.00
2013-12-29,35.9,32.2,28.5,33.5,30.2,25.6,96,92,87,30.04,29.53,0,0,4,0.00
2013-12-30,34.6,23.7,9.3,33.6,17.3,3.2,96,77,63,30.18,29.62,3,1,16,0.00
2013-12-31,22.9,15.8,9.5,15.7,8.2,3.2,80,72,61,30.20,29.98,2,1,15,0.00
2014-1-1,21.3,17.0,12.9,14.3,8.0,4.5,84,68,53,30.36,30.19,3,1,13,0.00
2014-1-2,18.4,16.3,10.0,14.5,11.5,4.5,85,81,72,30.28,29.77,2,0,11,0.00